首页
METAR-TAF:

METAR-TAF

机场 :

Hohn, 德国

纬度: 54-19N, 经度: 009-32E, 海拔: 12米

当前天气观测

该预报发布于52分钟前的08:20 UTC
风速15节,风向西
温度 7°C
湿度 81%
气压 1018 hPa
能见度10公里或以上
少量云层高于1300英尺
多云层高于4500英尺

METAR: ETNH 010820Z 27015KT 9999 FEW013 BKN045 07/04 Q1018 BLU BLU TEMPO WHT

时间: 11:12 (09:12 UTC)

预报

该预报发布于4小时和57分钟前的04:15 UTC
预报有效从01日的 05点(UTC)到 01日的 17点(UTC)
风速10节,风向西转西南
能见度10公里或以上
散云层高于2000英尺
多云层高于4000英尺
短暂存在
从 01日的 05点(UTC)到 01日的 09点(UTC)
风速12节,风向西
能見度: 5000
散云层高于1000英尺
多云层高于2000英尺
小雨
短暂存在
从 01日的 09点(UTC)到 01日的 17点(UTC)
风速15节,风向西,有时为25节阵风
能见度10公里或以上
散云层高于2000英尺
散云层高于5000英尺

TAF: ETNH 010415Z 0105/0117 25010KT 9999 NSW SCT020 BKN040 TEMPO 0105/0109 26012KT 5000 -RA SCT010 BKN020 TEMPO 0109/0117 27015G25KT 9999 NSW SCT020 SCT050 BY ETGL

超过4000个机场的气象观测和天气预报(METAR&TAF报告)。

可查询的气象台以黄色和红色小点在地图上表示。

将鼠标移到小点上方,可查看气象台名称。

然后点击查看天气观测和预报。

如需切换地图:点击带黑十字的绿色按钮放大地图;点击带横线的绿色按钮缩小地图;或者点击绿色箭头查看邻近地区的地图。


METAR-TAF: